Mc Causland, Iowa
Current Conditions -  °F | °C
As of 10:35 PM on Friday 24 Oct 2014 (Local Time) from KCWI Reporting Station
Overcast Overcast  
Wind Chill: 57°   Ceiling: 3300
Heat Index: 57°   Visibility: 5mi
Dew Point: 54°   Wind: 5mph
Humidity: 88%   Direction: 280°W
Pressure: 29.97"   Gusts: NA
Location:  41.7451°N, 90.4447°W
Report Text: KCWI 250335Z 28004KT 5SM OVC033 14/12 A2997 RMK AO1
Loading
Personal Weather Stations






























Interactive Weather Map
Tropical Storm Tracking
New forecast layout! Learn more

10-Day Weather Forecast

Advertisements
Track Severe Weather on mobile